Time;durP1;ratioP1;P1;durP2;ratioP2;P2;SDS_P1;SDS_P2;PMS_P1;PMS_P2;Temp;Humidity;BMP_temperature;BMP_pressure;BME280_temperature;BME280_humidity;BME280_pressure;Samples;Min_cycle;Max_cycle;Signal;HPM_P1;HPM_P2
2021/12/22 00:02:18;;;;;;;;;;;;;;;-3.77;83.53;99050.73;1750707;81;20351;-83
2021/12/22 00:04:46;;;;;;;;;;;;;;;-3.73;83.54;99056.25;1753799;81;25748;-84
2021/12/22 00:07:13;;;;;;;;;;;;;;;-3.77;83.56;99057.55;1749618;81;22047;-84
2021/12/22 00:09:40;;;;;;;;;;;;;;;-3.75;83.58;99060.93;1746799;80;26152;-84
2021/12/22 00:12:06;;;;;;;;;;;;;;;-3.77;83.59;99060.11;1754899;81;24443;-83
2021/12/22 00:14:33;;;;;;;;;;;;;;;-3.79;83.60;99048.59;1751851;80;21295;-83
2021/12/22 00:16:59;;;;;;;;;;;;;;;-3.78;83.61;99047.74;1749183;81;25029;-84
2021/12/22 00:19:25;;;;;;;;;;;;;;;-3.77;83.62;99046.89;1754060;80;20906;-84
2021/12/22 00:21:51;;;;;;;;;;;;;;;-3.79;83.63;99053.70;1747238;81;25958;-84
2021/12/22 00:24:17;;;;;;;;;;;;;;;-3.83;83.59;99060.55;1761318;81;24385;-84
2021/12/22 00:26:43;;;;;;;;;;;;;;;-3.84;83.60;99061.82;1746221;80;20486;-83
2021/12/22 00:29:09;;;;;;;;;;;;;;;-3.86;83.59;99064.37;1746982;81;24792;-83
2021/12/22 00:31:42;;;;;;;;;;;;;;;-3.95;83.52;99074.62;1751781;81;22023;-83
2021/12/22 00:34:05;;;;;;;;;;;;;;;-3.99;83.48;99066.55;1753516;81;26651;-84
2021/12/22 00:36:31;;;;;;;;;;;;;;;-4.03;83.43;99081.44;1750511;81;24520;-83
2021/12/22 00:38:57;;;;;;;;;;;;;;;-4.06;83.42;99077.63;1759666;81;20595;-83
2021/12/22 00:41:23;;;;;;;;;;;;;;;-4.07;83.40;99082.31;1760822;81;24786;-83
2021/12/22 00:43:50;;;;;;;;;;;;;;;-4.05;83.41;99082.31;1752883;81;21990;-84
2021/12/22 00:46:17;;;;;;;;;;;;;;;-4.04;83.41;99087.44;1712771;82;26690;-83
2021/12/22 00:48:43;;;;;;;;;;;;;;;-4.03;83.44;99094.64;1762618;80;25404;-84
2021/12/22 00:51:09;;;;;;;;;;;;;;;-4.02;83.47;99096.35;1759850;80;20471;-84
2021/12/22 00:53:35;;;;;;;;;;;;;;;-4.02;83.47;99093.37;1754618;80;24975;-84
2021/12/22 00:56:03;;;;;;;;;;;;;;;-3.96;83.54;99094.64;1760280;81;21934;-83
2021/12/22 00:58:30;;;;;;;;;;;;;;;-3.91;83.59;99101.87;1755548;81;25551;-84
2021/12/22 01:00:56;;;;;;;;;;;;;;;-3.87;83.67;99094.63;1759566;80;24324;-84
2021/12/22 01:03:22;;;;;;;;;;;;;;;-3.84;83.69;99092.08;1747188;81;20178;-83
2021/12/22 01:05:48;;;;;;;;;;;;;;;-3.82;83.73;99092.91;1757729;81;24901;-84
2021/12/22 01:08:15;;;;;;;;;;;;;;;-3.82;83.78;99087.79;1747717;81;22051;-83
2021/12/22 01:10:41;;;;;;;;;;;;;;;-3.84;83.82;99090.80;1756995;81;26042;-84
2021/12/22 01:13:08;;;;;;;;;;;;;;;-3.89;83.79;99091.66;1750188;81;24470;-84
2021/12/22 01:15:35;;;;;;;;;;;;;;;-3.94;83.76;99095.51;1740798;81;20243;-85
2021/12/22 01:18:11;;;;;;;;;;;;;;;-3.94;83.76;99098.06;1760475;80;24761;-85
2021/12/22 01:20:36;;;;;;;;;;;;;;;-3.91;83.77;99101.02;1751271;80;22134;-84
2021/12/22 01:23:04;;;;;;;;;;;;;;;-3.86;83.84;99106.55;1734199;81;26799;-84
2021/12/22 01:25:43;;;;;;;;;;;;;;;-3.82;83.86;99108.25;1722692;81;24674;-84
2021/12/22 01:28:08;;;;;;;;;;;;;;;-3.78;83.92;99118.06;1700736;83;20449;-83
2021/12/22 01:30:36;;;;;;;;;;;;;;;-3.77;83.98;99121.47;1695974;82;24732;-83
2021/12/22 01:33:09;;;;;;;;;;;;;;;-3.70;84.04;99116.75;1705265;81;22734;-84
2021/12/22 01:35:35;;;;;;;;;;;;;;;-3.64;84.13;99121.43;1724053;81;26006;-84
2021/12/22 01:38:05;;;;;;;;;;;;;;;-3.59;84.18;99131.64;1696195;81;24083;-84
2021/12/22 01:40:32;;;;;;;;;;;;;;;-3.59;84.25;99129.94;1720525;81;20240;-84
2021/12/22 01:43:02;;;;;;;;;;;;;;;-3.51;84.34;99129.93;1731599;81;24928;-84
2021/12/22 01:45:57;;;;;;;;;;;;;;;-3.44;84.41;99131.17;1745190;81;21975;-83
2021/12/22 01:50:51;;;;;;;;;;;;;;;-3.38;84.51;99126.46;1669056;84;24651;-84
2021/12/22 01:53:25;;;;;;;;;;;;;;;-3.31;84.59;99129.86;1654652;84;20478;-84
2021/12/22 01:56:02;;;;;;;;;;;;;;;-3.33;84.59;99134.16;1688852;84;24762;-84
2021/12/22 01:58:26;;;;;;;;;;;;;;;-3.38;84.58;99131.16;1694304;84;22059;-83
2021/12/22 02:00:52;;;;;;;;;;;;;;;-3.42;84.53;99129.47;1685518;84;26003;-84
2021/12/22 02:03:18;;;;;;;;;;;;;;;-3.42;84.52;99119.23;1664385;84;24528;-84
2021/12/22 02:05:44;;;;;;;;;;;;;;;-3.46;84.48;99125.23;1698648;83;20195;-84
2021/12/22 02:08:13;;;;;;;;;;;;;;;-3.46;84.47;99125.23;1689878;84;24879;-84
2021/12/22 02:10:46;;;;;;;;;;;;;;;-3.43;84.48;99126.91;1701114;84;22252;-83
2021/12/22 02:13:08;;;;;;;;;;;;;;;-3.38;84.51;99127.74;1691282;84;26634;-84
2021/12/22 02:15:41;;;;;;;;;;;;;;;-3.33;84.54;99123.48;1694687;84;25212;-84
2021/12/22 02:18:19;;;;;;;;;;;;;;;-3.31;84.57;99123.03;1694088;84;20230;-84
2021/12/22 02:20:41;;;;;;;;;;;;;;;-3.31;84.59;99129.43;1695193;83;24824;-84
2021/12/22 02:23:07;;;;;;;;;;;;;;;-3.32;84.60;99130.28;1697607;84;21989;-83
2021/12/22 02:25:42;;;;;;;;;;;;;;;-3.29;84.63;99129.02;1695590;84;25983;-84
2021/12/22 02:28:05;;;;;;;;;;;;;;;-3.23;84.68;99121.73;1689613;84;24561;-84
2021/12/22 02:30:32;;;;;;;;;;;;;;;-3.24;84.73;99118.33;1692990;84;20160;-84
2021/12/22 02:33:22;;;;;;;;;;;;;;;-3.23;84.73;99120.03;1700152;82;25458;-84
2021/12/22 02:36:09;;;;;;;;;;;;;;;-3.18;84.80;99111.91;1693287;84;21976;-84
2021/12/22 02:38:38;;;;;;;;;;;;;;;-3.16;84.82;99119.55;1699253;82;26829;-84
2021/12/22 02:41:08;;;;;;;;;;;;;;;-3.12;84.88;99120.84;1699157;84;24436;-84
2021/12/22 02:43:34;;;;;;;;;;;;;;;-3.10;84.92;99124.23;1700357;81;20257;-84
2021/12/22 02:46:02;;;;;;;;;;;;;;;-3.12;84.93;99118.28;1755217;81;25554;-84
2021/12/22 02:48:30;;;;;;;;;;;;;;;-3.08;84.98;99117.41;1756247;81;22083;-84
2021/12/22 02:50:57;;;;;;;;;;;;;;;-3.09;84.99;99121.23;1758366;80;26101;-84
2021/12/22 02:53:29;;;;;;;;;;;;;;;-3.10;85.01;99119.11;1753638;81;24492;-84
2021/12/22 02:56:00;;;;;;;;;;;;;;;-3.12;85.03;99116.15;1756620;81;20205;-84
2021/12/22 03:01:24;;;;;;;;;;;;;;;-3.09;85.04;99123.80;1726012;81;22150;-84
2021/12/22 03:06:18;;;;;;;;;;;;;;;-3.12;85.08;99121.27;1748193;81;24620;-84
2021/12/22 03:08:43;;;;;;;;;;;;;;;-3.14;85.06;99118.70;1754781;80;20169;-84
2021/12/22 03:11:09;;;;;;;;;;;;;;;-3.15;85.05;99123.39;1756011;80;24740;-85
2021/12/22 03:13:37;;;;;;;;;;;;;;;-3.17;85.02;99117.45;1752603;81;23387;-85
2021/12/22 03:16:03;;;;;;;;;;;;;;;-3.17;85.03;99119.16;1756703;80;26078;-84
2021/12/22 03:18:31;;;;;;;;;;;;;;;-3.17;85.01;99116.17;1756446;80;24358;-85
2021/12/22 03:21:23;;;;;;;;;;;;;;;-3.18;84.99;99117.45;1757824;81;20288;-84
2021/12/22 03:23:52;;;;;;;;;;;;;;;-3.16;85.02;99120.84;1759753;81;25591;-84
2021/12/22 03:26:20;;;;;;;;;;;;;;;-3.21;85.02;99123.42;1753793;81;21970;-84
2021/12/22 03:28:46;;;;;;;;;;;;;;;-3.19;85.00;99129.39;1726977;81;25905;-84
2021/12/22 03:31:13;;;;;;;;;;;;;;;-3.21;85.00;99127.26;1751852;81;24461;-83
2021/12/22 03:33:39;;;;;;;;;;;;;;;-3.21;85.00;99131.52;1752178;81;20254;-83
2021/12/22 03:36:05;;;;;;;;;;;;;;;-3.19;84.97;99134.52;1747040;81;24239;-84
2021/12/22 03:38:32;;;;;;;;;;;;;;;-3.19;85.01;99129.39;1753497;81;22059;-84
2021/12/22 03:41:00;;;;;;;;;;;;;;;-3.19;85.03;99136.22;1749151;81;26044;-85
2021/12/22 03:43:26;;;;;;;;;;;;;;;-3.18;85.06;99142.63;1758932;81;24462;-85
2021/12/22 03:45:52;;;;;;;;;;;;;;;-3.18;85.08;99139.20;1726876;81;20216;-83
2021/12/22 03:48:19;;;;;;;;;;;;;;;-3.19;85.08;99143.47;1750264;81;24774;-84
2021/12/22 03:50:45;;;;;;;;;;;;;;;-3.18;85.11;99139.20;1749216;80;21936;-84
2021/12/22 03:53:11;;;;;;;;;;;;;;;-3.19;85.13;99146.03;1749377;81;25919;-84
2021/12/22 03:55:38;;;;;;;;;;;;;;;-3.17;85.13;99146.03;1751186;81;24560;-84
2021/12/22 03:58:04;;;;;;;;;;;;;;;-3.14;85.16;99149.84;1747150;81;20698;-85
2021/12/22 04:00:30;;;;;;;;;;;;;;;-3.14;85.18;99144.30;1725940;81;24614;-85
2021/12/22 04:02:57;;;;;;;;;;;;;;;-3.10;85.23;99151.11;1750798;81;22116;-83
2021/12/22 04:05:24;;;;;;;;;;;;;;;-3.05;85.29;99150.66;1750599;80;25923;-84
2021/12/22 04:07:50;;;;;;;;;;;;;;;-3.06;85.31;99153.25;1742090;81;24281;-84
2021/12/22 04:10:20;;;;;;;;;;;;;;;-3.06;85.33;99152.81;1743091;81;20240;-84
2021/12/22 04:12:47;;;;;;;;;;;;;;;-3.10;85.33;99154.94;1749961;80;25556;-84
2021/12/22 04:15:13;;;;;;;;;;;;;;;-3.09;85.34;99150.67;1753312;81;22287;-84
2021/12/22 04:17:39;;;;;;;;;;;;;;;-3.08;85.36;99151.96;1744430;81;20958;-84
2021/12/22 04:20:06;;;;;;;;;;;;;;;-3.00;85.43;99148.92;1751931;81;20268;-84
2021/12/22 04:22:32;;;;;;;;;;;;;;;-2.97;85.48;99141.25;1744890;81;20440;-84
2021/12/22 04:24:58;;;;;;;;;;;;;;;-2.95;85.50;99142.53;1746932;81;24734;-85
2021/12/22 04:27:24;;;;;;;;;;;;;;;-2.94;85.56;99144.20;1747855;81;22039;-84
2021/12/22 04:29:50;;;;;;;;;;;;;;;-2.90;85.61;99142.08;1746835;81;26040;-85
2021/12/22 04:32:16;;;;;;;;;;;;;;;-2.86;85.65;99142.90;1745204;81;25235;-85
2021/12/22 04:34:42;;;;;;;;;;;;;;;-2.81;85.71;99147.56;1747297;81;20826;-84
2021/12/22 04:37:08;;;;;;;;;;;;;;;-2.80;85.77;99150.55;1748066;80;24796;-84
2021/12/22 04:39:34;;;;;;;;;;;;;;;-2.79;85.80;99152.27;1751460;80;21922;-84
2021/12/22 04:42:02;;;;;;;;;;;;;;;-2.81;85.82;99152.27;1746965;81;26038;-84
2021/12/22 04:44:28;;;;;;;;;;;;;;;-2.81;85.85;99149.70;1745217;81;24420;-84
2021/12/22 04:46:55;;;;;;;;;;;;;;;-2.81;85.86;99160.38;1744543;80;20307;-83
2021/12/22 04:49:22;;;;;;;;;;;;;;;-2.81;85.89;99161.23;1743278;81;25622;-84
2021/12/22 04:51:51;;;;;;;;;;;;;;;-2.78;85.90;99159.09;1734969;81;22047;-83
2021/12/22 04:56:57;;;;;;;;;;;;;;;-2.82;85.92;99155.67;1731578;81;25082;-84
2021/12/22 04:59:23;;;;;;;;;;;;;;;-2.79;85.96;99161.23;1744098;81;20212;-84
2021/12/22 05:01:51;;;;;;;;;;;;;;;-2.78;85.96;99160.38;1736921;81;24818;-84
2021/12/22 05:04:17;;;;;;;;;;;;;;;-2.76;85.97;99154.80;1734467;81;21965;-84
2021/12/22 05:06:43;;;;;;;;;;;;;;;-2.74;85.98;99158.21;1738647;81;26046;-84
2021/12/22 05:09:09;;;;;;;;;;;;;;;-2.73;86.01;99160.77;1734082;81;24480;-84
2021/12/22 05:11:35;;;;;;;;;;;;;;;-2.73;86.04;99159.92;1737014;81;20565;-83
2021/12/22 05:14:03;;;;;;;;;;;;;;;-2.72;86.09;99159.89;1737072;81;24956;-84
2021/12/22 05:16:31;;;;;;;;;;;;;;;-2.71;86.14;99164.58;1739902;80;20164;-84
2021/12/22 05:18:59;;;;;;;;;;;;;;;-2.74;86.17;99162.05;1735385;81;25947;-84
2021/12/22 05:21:26;;;;;;;;;;;;;;;-2.77;86.18;99159.06;1739222;81;25174;-83
2021/12/22 05:23:53;;;;;;;;;;;;;;;-2.79;86.21;99161.23;1737497;81;20616;-83
2021/12/22 05:26:20;;;;;;;;;;;;;;;-2.77;86.23;99162.05;1737529;80;24786;-84
2021/12/22 05:28:46;;;;;;;;;;;;;;;-2.75;86.26;99157.36;1735428;81;22095;-84
2021/12/22 05:31:13;;;;;;;;;;;;;;;-2.73;86.30;99163.34;1739580;81;25943;-83
2021/12/22 05:33:39;;;;;;;;;;;;;;;-2.71;86.36;99167.14;1735207;80;24197;-83
2021/12/22 05:36:05;;;;;;;;;;;;;;;-2.69;86.43;99166.72;1755350;80;20193;-83
2021/12/22 05:38:31;;;;;;;;;;;;;;;-2.65;86.49;99161.56;1737050;81;24708;-84
2021/12/22 05:40:57;;;;;;;;;;;;;;;-2.62;86.55;99160.25;1744299;81;21933;-84
2021/12/22 05:43:23;;;;;;;;;;;;;;;-2.61;86.62;99159.83;1740575;81;26175;-84
2021/12/22 05:45:49;;;;;;;;;;;;;;;-2.60;86.66;99166.66;1754569;80;25233;-84
2021/12/22 05:48:15;;;;;;;;;;;;;;;-2.60;86.71;99175.63;1751408;80;20244;-84
2021/12/22 05:50:46;;;;;;;;;;;;;;;-2.57;86.79;99168.80;1745899;81;24766;-85
2021/12/22 05:53:12;;;;;;;;;;;;;;;-2.54;86.85;99167.91;1745116;81;22838;-84
2021/12/22 05:55:38;;;;;;;;;;;;;;;-2.53;86.90;99168.34;1752041;81;26065;-85
2021/12/22 05:58:06;;;;;;;;;;;;;;;-2.51;86.96;99174.31;1754373;81;24519;-83
2021/12/22 06:00:33;;;;;;;;;;;;;;;-2.49;87.04;99172.58;1745738;81;20193;-83
2021/12/22 06:03:01;;;;;;;;;;;;;;;-2.46;87.09;99182.83;1743558;81;24798;-84
2021/12/22 06:05:28;;;;;;;;;;;;;;;-2.43;87.16;99180.66;1752378;81;21972;-84
2021/12/22 06:07:54;;;;;;;;;;;;;;;-2.41;87.23;99182.79;1755546;81;26185;-84
2021/12/22 06:10:20;;;;;;;;;;;;;;;-2.41;87.27;99177.66;1751970;81;24480;-84
2021/12/22 06:12:46;;;;;;;;;;;;;;;-2.42;87.30;99187.48;1737003;82;20254;-84
2021/12/22 06:15:13;;;;;;;;;;;;;;;-2.40;87.35;99187.06;1741142;82;25371;-84
2021/12/22 06:17:39;;;;;;;;;;;;;;;-2.41;87.40;99185.35;1751690;81;21948;-84
2021/12/22 06:20:05;;;;;;;;;;;;;;;-2.38;87.44;99192.58;1744161;81;25995;-85
2021/12/22 06:22:34;;;;;;;;;;;;;;;-2.36;87.48;99192.16;1731521;81;24568;-84
2021/12/22 06:25:03;;;;;;;;;;;;;;;-2.34;87.54;99195.97;1748802;81;20239;-84
2021/12/22 06:27:29;;;;;;;;;;;;;;;-2.31;87.59;99200.66;1735589;81;24809;-83
2021/12/22 06:29:55;;;;;;;;;;;;;;;-2.28;87.64;99209.60;1737512;81;22041;-83
2021/12/22 06:32:21;;;;;;;;;;;;;;;-2.28;87.69;99210.88;1732747;82;26024;-83
2021/12/22 06:34:47;;;;;;;;;;;;;;;-2.28;87.73;99214.73;1737050;82;24498;-84
2021/12/22 06:37:13;;;;;;;;;;;;;;;-2.30;87.77;99225.44;1735028;81;20248;-84
2021/12/22 06:39:40;;;;;;;;;;;;;;;-2.30;87.80;99222.87;1743554;81;20255;-84
2021/12/22 06:42:08;;;;;;;;;;;;;;;-2.31;87.83;99233.98;1749014;81;21988;-84
2021/12/22 06:44:38;;;;;;;;;;;;;;;-2.34;87.85;99236.55;1739095;81;25950;-84
2021/12/22 06:47:06;;;;;;;;;;;;;;;-2.33;87.86;99239.53;1727009;81;24377;-84
2021/12/22 06:49:32;;;;;;;;;;;;;;;-2.35;87.90;99238.72;1741798;81;20490;-84
2021/12/22 06:51:58;;;;;;;;;;;;;;;-2.34;87.92;99244.66;1744266;81;24909;-84
2021/12/22 06:54:24;;;;;;;;;;;;;;;-2.37;87.95;99245.98;1747272;81;21973;-84
2021/12/22 06:56:52;;;;;;;;;;;;;;;-2.37;87.99;99247.26;1757747;81;26633;-84
2021/12/22 06:59:18;;;;;;;;;;;;;;;-2.37;88.01;99249.39;1753836;81;25310;-84
2021/12/22 07:01:45;;;;;;;;;;;;;;;-2.33;88.08;99251.07;1739946;81;20361;-84
2021/12/22 07:04:11;;;;;;;;;;;;;;;-2.34;88.12;99258.76;1739609;81;24898;-84
2021/12/22 07:06:37;;;;;;;;;;;;;;;-2.35;88.15;99257.94;1739248;81;21930;-84
2021/12/22 07:09:09;;;;;;;;;;;;;;;-2.34;88.22;99255.77;1742146;81;26724;-84
2021/12/22 07:11:36;;;;;;;;;;;;;;;-2.35;88.26;99259.65;1737982;81;25627;-84
2021/12/22 07:14:03;;;;;;;;;;;;;;;-2.35;88.30;99266.05;1743973;80;20164;-84
2021/12/22 07:16:29;;;;;;;;;;;;;;;-2.36;88.34;99263.92;1742684;81;24805;-84
2021/12/22 07:18:56;;;;;;;;;;;;;;;-2.34;88.36;99267.30;1747455;81;22026;-84
2021/12/22 07:21:23;;;;;;;;;;;;;;;-2.34;88.44;99262.61;1728880;81;26064;-84
2021/12/22 07:23:52;;;;;;;;;;;;;;;-2.34;88.47;99268.59;1721166;81;25041;-84
2021/12/22 07:26:22;;;;;;;;;;;;;;;-2.34;88.50;99275.42;1745418;81;20239;-85
2021/12/22 07:28:49;;;;;;;;;;;;;;;-2.36;88.56;99272.89;1738843;81;24881;-83
2021/12/22 07:31:16;;;;;;;;;;;;;;;-2.37;88.60;99281.43;1741170;82;22134;-84
2021/12/22 07:33:46;;;;;;;;;;;;;;;-2.33;88.66;99280.55;1740154;81;26030;-84
2021/12/22 07:36:12;;;;;;;;;;;;;;;-2.30;88.74;99284.39;1740376;81;25069;-83
2021/12/22 07:38:40;;;;;;;;;;;;;;;-2.26;88.81;99285.22;1741753;80;20276;-83
2021/12/22 07:41:08;;;;;;;;;;;;;;;-2.22;88.90;99290.32;1739424;81;24936;-83
2021/12/22 07:43:35;;;;;;;;;;;;;;;-2.19;88.98;99285.63;1734310;81;21982;-83
2021/12/22 07:46:03;;;;;;;;;;;;;;;-2.12;89.08;99288.55;1751450;80;26034;-83
2021/12/22 07:48:29;;;;;;;;;;;;;;;-2.09;89.18;99283.84;1760476;80;24570;-83
2021/12/22 07:50:56;;;;;;;;;;;;;;;-2.08;89.23;99287.70;1765402;80;20467;-83
2021/12/22 07:53:22;;;;;;;;;;;;;;;-2.06;89.29;99288.95;1758555;81;25591;-83
2021/12/22 07:55:53;;;;;;;;;;;;;;;-2.06;89.34;99290.23;1747740;81;21955;-83
2021/12/22 07:58:17;;;;;;;;;;;;;;;-2.06;89.38;99283.81;1758595;81;26122;-83
2021/12/22 08:00:52;;;;;;;;;;;;;;;-2.02;89.43;99290.66;1752468;81;24563;-83
2021/12/22 08:03:18;;;;;;;;;;;;;;;-2.01;89.50;99285.49;1749424;80;20181;-83
2021/12/22 08:05:44;;;;;;;;;;;;;;;-2.03;89.56;99292.37;1758369;80;24790;-83
2021/12/22 08:08:10;;;;;;;;;;;;;;;-2.00;89.59;99296.61;1758896;81;22073;-83
2021/12/22 08:10:36;;;;;;;;;;;;;;;-2.02;89.62;99294.50;1759444;81;26047;-83
2021/12/22 08:13:03;;;;;;;;;;;;;;;-2.06;89.62;99293.65;1759062;81;24386;-83
2021/12/22 08:15:31;;;;;;;;;;;;;;;-2.06;89.61;99292.37;1747623;81;20290;-83
2021/12/22 08:17:57;;;;;;;;;;;;;;;-2.05;89.62;99299.20;1756515;81;24769;-83
2021/12/22 08:20:24;;;;;;;;;;;;;;;-2.09;89.58;99294.96;1749980;81;22031;-83
2021/12/22 08:22:50;;;;;;;;;;;;;;;-2.11;89.59;99300.52;1758428;81;25990;-83
2021/12/22 08:25:16;;;;;;;;;;;;;;;-2.11;89.60;99295.39;1751454;81;24412;-83
2021/12/22 08:27:43;;;;;;;;;;;;;;;-2.11;89.61;99292.83;1759191;81;20210;-83
2021/12/22 08:30:09;;;;;;;;;;;;;;;-2.10;89.62;99300.94;1757540;80;25660;-83
2021/12/22 08:32:35;;;;;;;;;;;;;;;-2.09;89.62;99300.09;1751016;80;22131;-83
2021/12/22 08:35:03;;;;;;;;;;;;;;;-2.09;89.66;99295.39;1756070;80;25956;-83
2021/12/22 08:40:17;;;;;;;;;;;;;;;-2.01;89.73;99307.72;1753810;81;20282;-84
2021/12/22 08:42:43;;;;;;;;;;;;;;;-1.97;89.79;99311.57;1757529;81;24758;-83
2021/12/22 08:45:10;;;;;;;;;;;;;;;-1.92;89.87;99310.25;1762226;81;22037;-83
2021/12/22 08:47:36;;;;;;;;;;;;;;;-1.93;89.90;99314.95;1746872;81;26018;-83
2021/12/22 08:50:03;;;;;;;;;;;;;;;-1.90;89.92;99318.77;1744768;81;25557;-83
2021/12/22 08:52:29;;;;;;;;;;;;;;;-1.87;89.99;99323.91;1732567;81;20313;-83
2021/12/22 08:54:55;;;;;;;;;;;;;;;-1.83;90.01;99321.73;1748341;81;24726;-83
2021/12/22 08:57:21;;;;;;;;;;;;;;;-1.77;90.11;99325.55;1741571;81;21949;-83
2021/12/22 08:59:47;;;;;;;;;;;;;;;-1.73;90.17;99328.08;1747897;81;25976;-83
2021/12/22 09:02:13;;;;;;;;;;;;;;;-1.70;90.19;99331.92;1747442;80;24418;-83
2021/12/22 09:04:40;;;;;;;;;;;;;;;-1.63;90.26;99329.28;1734697;81;20228;-84
2021/12/22 09:07:06;;;;;;;;;;;;;;;-1.57;90.30;99325.40;1745142;81;24831;-83
2021/12/22 09:09:32;;;;;;;;;;;;;;;-1.55;90.34;99327.11;1737844;81;22027;-83
2021/12/22 09:11:58;;;;;;;;;;;;;;;-1.56;90.33;99325.83;1750448;81;26003;-83
2021/12/22 09:14:25;;;;;;;;;;;;;;;-1.62;90.26;99329.28;1747325;81;24420;-83
2021/12/22 09:16:51;;;;;;;;;;;;;;;-1.62;90.26;99335.70;1721911;82;20168;-83
2021/12/22 09:19:17;;;;;;;;;;;;;;;-1.59;90.26;99327.14;1743541;80;24762;-83
2021/12/22 09:21:44;;;;;;;;;;;;;;;-1.58;90.24;99327.11;1747691;81;21882;-83
2021/12/22 09:24:10;;;;;;;;;;;;;;;-1.55;90.24;99323.69;1755771;81;26047;-83
2021/12/22 09:26:36;;;;;;;;;;;;;;;-1.51;90.27;99328.78;1741695;81;24476;-83
2021/12/22 09:29:03;;;;;;;;;;;;;;;-1.49;90.29;99328.34;1741550;80;20843;-83
2021/12/22 09:31:30;;;;;;;;;;;;;;;-1.45;90.31;99330.02;1732252;81;24774;-83
2021/12/22 09:33:56;;;;;;;;;;;;;;;-1.39;90.35;99328.69;1749962;81;22040;-83
2021/12/22 09:36:23;;;;;;;;;;;;;;;-1.35;90.39;99332.08;1735244;81;25933;-83
2021/12/22 09:38:49;;;;;;;;;;;;;;;-1.35;90.38;99334.22;1701075;83;24458;-83
2021/12/22 09:41:15;;;;;;;;;;;;;;;-1.35;90.39;99329.51;1737093;81;20241;-83
2021/12/22 09:43:42;;;;;;;;;;;;;;;-1.35;90.39;99329.08;1723782;81;24748;-82
2021/12/22 09:46:11;;;;;;;;;;;;;;;-1.37;90.40;99333.39;1741946;81;21952;-83
2021/12/22 09:48:51;;;;;;;;;;;;;;;-1.33;90.41;99331.64;1750446;81;26123;-82
2021/12/22 09:53:46;;;;;;;;;;;;;;;-1.31;90.39;99332.50;1742548;82;20645;-82
2021/12/22 09:56:11;;;;;;;;;;;;;;;-1.31;90.37;99330.75;1733498;81;25570;-82
2021/12/22 09:58:39;;;;;;;;;;;;;;;-1.27;90.36;99329.89;1743953;80;21997;-82
2021/12/22 10:01:05;;;;;;;;;;;;;;;-1.23;90.36;99324.71;1744422;81;26099;-82
2021/12/22 10:03:31;;;;;;;;;;;;;;;-1.23;90.34;99324.28;1740543;81;24591;-82
2021/12/22 10:05:57;;;;;;;;;;;;;;;-1.24;90.33;99321.29;1744073;81;20473;-82
2021/12/22 10:08:24;;;;;;;;;;;;;;;-1.26;90.27;99319.19;1740757;81;24770;-82
2021/12/22 10:11:01;;;;;;;;;;;;;;;-1.30;90.19;99320.91;1752016;81;21928;-82
2021/12/22 10:13:28;;;;;;;;;;;;;;;-1.29;90.13;99315.34;1758187;81;26061;-82
2021/12/22 10:15:55;;;;;;;;;;;;;;;-1.22;90.13;99317.00;1760273;81;24402;-82
2021/12/22 10:18:23;;;;;;;;;;;;;;;-1.15;90.13;99314.81;1748326;81;20164;-82
2021/12/22 10:20:51;;;;;;;;;;;;;;;-1.06;90.12;99310.86;1755685;81;25437;-82
2021/12/22 10:23:27;;;;;;;;;;;;;;;-1.05;90.10;99310.00;1758629;80;22039;-82
2021/12/22 10:25:59;;;;;;;;;;;;;;;-1.06;90.04;99307.44;1746667;81;25975;-82
2021/12/22 10:28:27;;;;;;;;;;;;;;;-1.05;89.97;99313.00;1750551;80;24613;-83
2021/12/22 10:31:01;;;;;;;;;;;;;;;-0.94;90.01;99312.03;1743339;82;20336;-83
2021/12/22 10:33:31;;;;;;;;;;;;;;;-0.88;90.01;99313.70;1747668;80;25636;-83
2021/12/22 10:36:02;;;;;;;;;;;;;;;-0.82;90.03;99302.51;1749728;81;22891;-83
2021/12/22 10:38:29;;;;;;;;;;;;;;;-0.69;90.07;99310.48;1744119;81;26050;-83
2021/12/22 10:40:57;;;;;;;;;;;;;;;-0.62;90.10;99309.56;1757632;81;24569;-83
2021/12/22 10:43:25;;;;;;;;;;;;;;;-0.57;90.12;99306.50;1743376;81;20166;-84
2021/12/22 10:45:56;;;;;;;;;;;;;;;-0.47;90.18;99304.23;1753609;81;24865;-83
2021/12/22 10:51:20;;;;;;;;;;;;;;;-0.36;90.21;99302.39;1758750;80;26738;-82
2021/12/22 10:53:47;;;;;;;;;;;;;;;-0.26;90.24;99299.26;1734904;82;24494;-83
2021/12/22 10:56:28;;;;;;;;;;;;;;;-0.17;90.23;99302.59;1741703;81;20240;-83
2021/12/22 10:59:08;;;;;;;;;;;;;;;-0.10;90.21;99293.90;1759759;80;25567;-83
2021/12/22 11:01:35;;;;;;;;;;;;;;;-0.12;90.12;99295.66;1762176;80;22085;-83
2021/12/22 11:04:04;;;;;;;;;;;;;;;-0.18;89.98;99299.59;1750378;81;26135;-83
2021/12/22 11:06:31;;;;;;;;;;;;;;;-0.24;89.81;99298.81;1744741;81;25778;-83
2021/12/22 11:08:59;;;;;;;;;;;;;;;-0.28;89.63;99299.73;1719739;81;20482;-82
2021/12/22 11:11:33;;;;;;;;;;;;;;;-0.32;89.49;99302.76;1706741;82;24772;-83
2021/12/22 11:14:01;;;;;;;;;;;;;;;-0.38;89.28;99313.11;1706871;82;22075;-82
2021/12/22 11:16:27;;;;;;;;;;;;;;;-0.39;89.14;99304.16;1726083;82;26108;-83
2021/12/22 11:18:53;;;;;;;;;;;;;;;-0.40;88.99;99311.45;1745252;80;24225;-82
2021/12/22 11:21:31;;;;;;;;;;;;;;;-0.42;88.86;99304.59;1709935;82;20290;-82
2021/12/22 11:23:56;;;;;;;;;;;;;;;-0.43;88.75;99304.17;1722466;82;25735;-82
2021/12/22 11:26:24;;;;;;;;;;;;;;;-0.43;88.60;99308.03;1711529;82;20337;-83
2021/12/22 11:28:50;;;;;;;;;;;;;;;-0.50;88.47;99306.42;1674312;84;26213;-83
2021/12/22 11:31:16;;;;;;;;;;;;;;;-0.49;88.37;99309.38;1700459;84;24347;-83
2021/12/22 11:33:44;;;;;;;;;;;;;;;-0.47;88.32;99297.38;1716226;82;20223;-82
2021/12/22 11:36:12;;;;;;;;;;;;;;;-0.43;88.29;99295.17;1714458;82;24791;-83
2021/12/22 11:38:39;;;;;;;;;;;;;;;-0.40;88.22;99299.87;1751730;80;23033;-82
2021/12/22 11:41:13;;;;;;;;;;;;;;;-0.46;88.12;99295.23;1742737;80;25874;-83
2021/12/22 11:43:37;;;;;;;;;;;;;;;-0.40;88.08;99281.88;1734310;82;24459;-83
2021/12/22 11:46:04;;;;;;;;;;;;;;;-0.33;88.04;99271.52;1735634;82;20587;-82
2021/12/22 11:48:33;;;;;;;;;;;;;;;-0.26;87.99;99265.83;1733102;82;24794;-84
2021/12/22 11:51:00;;;;;;;;;;;;;;;-0.23;87.95;99264.52;1740708;82;22206;-84
2021/12/22 11:53:28;;;;;;;;;;;;;;;-0.25;87.91;99263.67;1734136;82;25983;-81
2021/12/22 11:55:57;;;;;;;;;;;;;;;-0.25;87.83;99268.82;1723194;82;24438;-82
2021/12/22 11:58:25;;;;;;;;;;;;;;;-0.25;87.75;99260.67;1731235;82;20231;-82
2021/12/22 12:00:56;;;;;;;;;;;;;;;-0.21;87.68;99267.90;1737684;82;24987;-82
2021/12/22 12:03:26;;;;;;;;;;;;;;;-0.17;87.64;99271.72;1726415;82;22075;-82
2021/12/22 12:06:02;;;;;;;;;;;;;;;-0.15;87.58;99263.53;1724769;82;25995;-82
2021/12/22 12:08:33;;;;;;;;;;;;;;;-0.08;87.52;99263.02;1733381;82;24432;-83
2021/12/22 12:11:00;;;;;;;;;;;;;;;-0.11;87.42;99257.46;1726936;81;20234;-83
2021/12/22 12:13:41;;;;;;;;;;;;;;;-0.15;87.29;99265.25;1731958;82;24861;-84
2021/12/22 12:21:57;;;;;;;;;;;;;;;-0.29;86.86;99268.02;1742654;81;23875;-82
2021/12/22 12:24:40;;;;;;;;;;;;;;;-0.33;86.68;99257.80;1744030;81;20349;-82
2021/12/22 12:27:24;;;;;;;;;;;;;;;-0.38;86.51;99255.72;1742570;81;24889;-82
2021/12/22 12:30:04;;;;;;;;;;;;;;;-0.40;86.35;99254.45;1740608;81;22156;-82
2021/12/22 12:32:41;;;;;;;;;;;;;;;-0.44;86.20;99252.80;1741366;81;25939;-84
2021/12/22 12:35:21;;;;;;;;;;;;;;;-0.37;86.13;99252.26;1751776;81;24428;-85
2021/12/22 12:38:04;;;;;;;;;;;;;;;-0.35;86.05;99244.95;1748304;81;20539;-84
2021/12/22 12:40:49;;;;;;;;;;;;;;;-0.36;85.96;99241.96;1751196;81;24751;-84
2021/12/22 12:43:15;;;;;;;;;;;;;;;-0.35;85.92;99245.39;1753347;80;21994;-84
2021/12/22 12:45:43;;;;;;;;;;;;;;;-0.37;85.88;99246.68;1774463;79;26686;-84
2021/12/22 12:48:28;;;;;;;;;;;;;;;-0.43;85.76;99250.61;1792360;79;24462;-84
2021/12/22 12:51:13;;;;;;;;;;;;;;;-0.38;85.69;99255.72;1773934;79;20314;-83
2021/12/22 12:53:41;;;;;;;;;;;;;;;-0.36;85.66;99256.10;1773698;79;24961;-83
2021/12/22 12:56:09;;;;;;;;;;;;;;;-0.37;85.62;99255.68;1766204;79;22649;-83
2021/12/22 12:58:37;;;;;;;;;;;;;;;-0.36;85.56;99250.95;1763617;79;26125;-84
2021/12/22 13:01:03;;;;;;;;;;;;;;;-0.33;85.52;99252.22;1774555;79;24501;-84
2021/12/22 13:03:33;;;;;;;;;;;;;;;-0.36;85.42;99247.11;1766247;79;20227;-83
2021/12/22 13:05:59;;;;;;;;;;;;;;;-0.36;85.36;99248.39;1772509;79;24809;-83
2021/12/22 13:08:27;;;;;;;;;;;;;;;-0.37;85.28;99249.69;1786713;79;21911;-83
2021/12/22 13:11:01;;;;;;;;;;;;;;;-0.42;85.17;99251.89;1769766;78;26044;-83
2021/12/22 13:13:50;;;;;;;;;;;;;;;-0.41;85.11;99256.59;1772154;79;24556;-83
2021/12/22 13:15:51;;;;;;;;;;;;;;;-0.43;85.09;99251.47;1771892;79;20348;-82
2021/12/22 13:18:26;;;;;;;;;;;;;;;-0.47;85.00;99255.39;1764850;79;24691;-83